Avondale, Kentucky
Current Conditions -  °F | °C
As of 11:53 AM on Friday 24 Oct 2014 (Local Time) from KPAH Reporting Station
Clear Clear  
Wind Chill: 19°   Ceiling: Unl
Heat Index: 19°   Visibility: 10mi
Dew Point: 11°   Wind: 6mph
Humidity: 60%   Direction: NA
Pressure: 30.12"   Gusts: NA
Location:  37.0331°N, 88.716°W
Report Text: KPAH 241653Z VRB05KT 10SM CLR 19/11 A3012 RMK AO2 SLP197 T01890111
Loading
Personal Weather Stations






























Interactive Weather Map
Tropical Storm Tracking
New forecast layout! Learn more

10-Day Weather Forecast

Advertisements
Track Severe Weather on mobile